Pagrindinis puslapis
METAR-TAF:

METAR-TAF

Oro uostai :

Gran Kanarija, Ispanija

platuma: 27-56N, ilguma: 015-23W, Aukštis: 23 m

Dabartinis oras

Ataskaita buvo paskelbta 37 minutes, ne 21:30 UTC
Vėjas 14 kt iš Šiaurės
Temperatūra 23°C
Drėgmė 89%
Slėgis 1016 hPa
Matomumas 10 km arba daugiau
Mažai debesys ne aukštis 2000 ft
Išsisklaidę debesys ne aukštis 3000 ft

METAR: GCLP 162130Z 01014KT 9999 FEW020 SCT030 23/21 Q1016 NOSIG

Laikas: 23:07 (22:07 UTC)

Prognozė

Ataskaita buvo paskelbta 2 valandos ir 7 minutes, ne 20:00 UTC
Prognozė galioja nuo 16 metu 21 UTC su 17 metu 21 UTC
Vėjas 12 kt iš Šiaurės
Matomumas 10 km arba daugiau
Mažai debesys ne aukštis 2500 ft
Laikinai
nuo 16 metu 21 UTC su 17 metu 03 UTC
Išsisklaidę debesys ne aukštis 13000 ft, aukštai iškilę kamuoliniai debesys.

TAF: GCLP 162000Z 1621/1721 36012KT 9999 FEW025 TX26/1714Z TN21/1705Z TEMPO 1621/1703 SCT130TCU

Orai ataskaitas ir orų prognozės (METAR, TAF).

turimą stotys yra geltonos ir raudonos taškus žemėlapyje.

Perkelti pele per norėdami pamatyti stoties vardą.

Tada spustelėkite, norėdami matyti oro stebėjimo ir prognozės.

Norėdami pakeisti žemėlapį: spustelėkite ant žalios mygtukų su juodo kryžiaus žemyn,; žalią mygtuką su brūkšneliu, jei norite nutolinti; arba žalių rodyklių gretimoms žemėlapius.


METAR-TAF: